createdAt,value
2022-10-19T00:01:15.504Z,97.16
2022-10-19T00:03:43.613Z,96.94
2022-10-19T00:06:34.650Z,96.89
2022-10-19T00:09:08.811Z,97.32
2022-10-19T00:11:39.448Z,96.70
2022-10-19T00:14:06.513Z,96.84
2022-10-19T00:16:35.899Z,96.81
2022-10-19T00:19:05.712Z,96.54
2022-10-19T00:21:32.665Z,95.97
2022-10-19T00:23:59.141Z,95.19
2022-10-19T00:26:25.605Z,95.39
2022-10-19T00:28:56.060Z,94.88
2022-10-19T00:31:22.928Z,94.57
2022-10-19T00:33:49.426Z,94.17
2022-10-19T00:36:21.300Z,93.47
2022-10-19T00:38:48.203Z,93.59
2022-10-19T00:41:15.570Z,94.37
2022-10-19T00:43:58.837Z,94.23
2022-10-19T00:46:27.084Z,94.39
2022-10-19T00:49:00.233Z,93.86
2022-10-19T00:51:29.261Z,95.25
2022-10-19T00:53:56.451Z,95.10
2022-10-19T00:56:23.472Z,95.05
2022-10-19T00:58:50.211Z,96.21
2022-10-19T01:01:19.449Z,95.60
2022-10-19T01:03:46.558Z,96.44
2022-10-19T01:06:15.652Z,97.78
2022-10-19T01:08:42.041Z,97.67
2022-10-19T01:11:32.656Z,97.79
2022-10-19T01:14:25.102Z,97.34
2022-10-19T01:17:33.479Z,95.78
2022-10-19T01:20:29.297Z,96.52
2022-10-19T01:23:04.645Z,97.11
2022-10-19T01:25:51.843Z,96.09
2022-10-19T01:28:30.177Z,96.58
2022-10-19T01:31:07.122Z,95.64
2022-10-19T01:33:52.173Z,96.45
2022-10-19T01:36:40.583Z,96.26
2022-10-19T01:39:17.589Z,95.02
2022-10-19T01:42:07.245Z,94.94
2022-10-19T01:45:00.242Z,94.90
2022-10-19T01:47:36.799Z,95.51
2022-10-19T01:50:13.925Z,95.65
2022-10-19T01:52:41.686Z,95.56
2022-10-19T01:55:12.842Z,96.48
2022-10-19T01:57:45.774Z,96.41
2022-10-19T02:00:14.826Z,96.72
2022-10-19T02:02:45.592Z,96.42
2022-10-19T02:05:13.218Z,95.46
2022-10-19T02:07:44.098Z,96.05
2022-10-19T02:10:10.866Z,95.29
2022-10-19T02:12:38.191Z,94.69
2022-10-19T02:15:10.721Z,94.42
2022-10-19T02:17:43.641Z,94.63
2022-10-19T02:20:10.379Z,95.27
2022-10-19T02:22:37.175Z,94.62
2022-10-19T02:25:04.759Z,95.32
2022-10-19T02:27:31.214Z,94.83
2022-10-19T02:29:57.687Z,94.99
2022-10-19T02:32:24.195Z,95.64
2022-10-19T02:34:50.691Z,95.76
2022-10-19T02:37:19.865Z,95.11
2022-10-19T02:39:48.493Z,94.88
2022-10-19T02:42:24.871Z,95.02
2022-10-19T02:45:02.340Z,95.89
2022-10-19T02:47:35.269Z,95.64
2022-10-19T02:50:05.712Z,95.78
2022-10-19T02:52:32.179Z,96.72
2022-10-19T02:54:58.563Z,95.76
2022-10-19T02:57:25.867Z,95.67
2022-10-19T02:59:52.923Z,95.63
2022-10-19T03:02:20.702Z,96.47
2022-10-19T03:07:16.725Z,95.93
2022-10-19T03:09:43.529Z,96.28
2022-10-19T03:12:10.988Z,96.89
2022-10-19T03:14:37.371Z,97.80
2022-10-19T03:17:04.156Z,98.45
2022-10-19T03:19:31.126Z,98.36
2022-10-19T03:21:57.755Z,98.72
2022-10-19T03:24:24.218Z,97.83
2022-10-19T03:26:50.681Z,99.13
2022-10-19T03:29:17.105Z,98.88
2022-10-19T03:31:43.522Z,98.57
2022-10-19T03:34:09.878Z,98.62
2022-10-19T03:36:38.695Z,98.42
2022-10-19T03:39:08.323Z,98.97
2022-10-19T03:41:36.318Z,98.87
2022-10-19T03:44:03.399Z,98.90
2022-10-19T03:46:30.201Z,97.56
2022-10-19T03:48:56.620Z,96.99
2022-10-19T03:51:25.257Z,97.48
2022-10-19T03:54:04.204Z,98.31
2022-10-19T03:56:31.991Z,98.21
2022-10-19T03:59:00.441Z,98.64
2022-10-19T04:01:29.460Z,98.57
2022-10-19T04:03:57.740Z,98.09
2022-10-19T04:06:26.586Z,98.09
2022-10-19T04:08:53.104Z,97.34
2022-10-19T04:11:22.634Z,97.03
2022-10-19T04:13:50.519Z,97.25
2022-10-19T04:16:17.226Z,97.15
2022-10-19T04:18:43.687Z,97.32
2022-10-19T04:21:20.805Z,97.50
2022-10-19T04:23:53.864Z,97.92
2022-10-19T04:26:20.936Z,96.93
2022-10-19T04:28:47.414Z,96.33
2022-10-19T04:31:14.869Z,97.31
2022-10-19T04:33:42.023Z,96.43
2022-10-19T04:36:12.974Z,95.80
2022-10-19T04:38:42.762Z,95.73
2022-10-19T04:41:14.704Z,96.64
2022-10-19T04:43:41.420Z,96.12
2022-10-19T04:46:11.078Z,96.79
2022-10-19T04:48:38.855Z,96.92
2022-10-19T04:51:05.771Z,96.52
2022-10-19T04:53:33.145Z,97.88
2022-10-19T04:55:59.732Z,97.34
2022-10-19T04:58:27.323Z,97.16
2022-10-19T05:00:53.776Z,97.72
2022-10-19T05:03:20.282Z,97.94
2022-10-19T05:05:46.675Z,98.20
2022-10-19T05:08:13.098Z,98.84
2022-10-19T05:10:40.530Z,98.31
2022-10-19T05:13:09.494Z,98.33
2022-10-19T05:15:35.904Z,97.88
2022-10-19T05:18:02.393Z,97.53
2022-10-19T05:20:30.866Z,96.45
2022-10-19T05:22:59.119Z,96.67
2022-10-19T05:25:26.657Z,96.53
2022-10-19T05:27:53.604Z,96.75
2022-10-19T05:30:21.848Z,97.07
2022-10-19T05:32:48.877Z,96.90
2022-10-19T05:35:17.593Z,96.84
2022-10-19T05:37:46.475Z,96.70
2022-10-19T05:40:12.927Z,96.76
2022-10-19T05:42:40.422Z,96.92
2022-10-19T05:45:07.222Z,97.47
2022-10-19T05:47:35.125Z,98.10
2022-10-19T05:50:01.811Z,98.66
2022-10-19T05:52:42.455Z,97.67
2022-10-19T05:55:09.477Z,98.95
2022-10-19T05:57:39.143Z,99.02
2022-10-19T06:00:05.881Z,99.26
2022-10-19T06:02:32.289Z,99.56
2022-10-19T06:04:58.679Z,99.14
2022-10-19T06:07:25.068Z,98.92
2022-10-19T06:09:51.479Z,98.96
2022-10-19T06:12:24.265Z,98.57
2022-10-19T06:14:51.579Z,97.89
2022-10-19T06:17:17.998Z,98.29
2022-10-19T06:19:44.424Z,98.20
2022-10-19T06:22:10.825Z,97.54
2022-10-19T06:24:37.336Z,98.64
2022-10-19T06:27:03.809Z,98.81
2022-10-19T06:29:30.192Z,100.00
2022-10-19T06:31:56.732Z,100.00
2022-10-19T06:34:23.408Z,99.85
2022-10-19T06:36:49.921Z,100.00
2022-10-19T06:39:16.399Z,100.00
2022-10-19T06:41:42.799Z,100.00
2022-10-19T06:44:09.662Z,100.00
2022-10-19T06:46:36.082Z,100.00
2022-10-19T06:49:02.893Z,100.00
2022-10-19T06:51:32.267Z,100.00
2022-10-19T06:53:58.700Z,100.00
2022-10-19T06:56:26.625Z,100.00
2022-10-19T06:58:53.997Z,100.00
2022-10-19T07:01:22.545Z,100.00
2022-10-19T07:03:51.791Z,100.00
2022-10-19T07:06:18.275Z,100.00
2022-10-19T07:08:44.837Z,100.00
2022-10-19T07:11:16.231Z,100.00
2022-10-19T07:13:42.716Z,100.00
2022-10-19T07:16:16.149Z,100.00
2022-10-19T07:18:46.287Z,100.00
2022-10-19T07:21:15.105Z,100.00
2022-10-19T07:23:42.811Z,100.00
2022-10-19T07:26:18.339Z,100.00
2022-10-19T07:28:47.155Z,100.00
2022-10-19T07:31:17.840Z,100.00
2022-10-19T07:33:44.791Z,100.00
2022-10-19T07:36:13.615Z,100.00
2022-10-19T07:38:40.613Z,100.00
2022-10-19T07:41:15.871Z,100.00
2022-10-19T07:43:43.813Z,100.00
2022-10-19T07:46:19.112Z,100.00
2022-10-19T07:48:45.945Z,100.00
2022-10-19T07:51:15.021Z,100.00
2022-10-19T07:53:42.055Z,100.00
2022-10-19T07:56:20.076Z,100.00
2022-10-19T07:58:47.049Z,100.00
2022-10-19T08:01:18.581Z,100.00
2022-10-19T08:06:32.832Z,100.00
2022-10-19T08:08:59.473Z,100.00
2022-10-19T08:11:32.541Z,100.00
2022-10-19T08:13:59.307Z,100.00
2022-10-19T08:16:27.345Z,100.00
2022-10-19T08:18:57.805Z,100.00
2022-10-19T08:21:25.731Z,100.00
2022-10-19T08:23:52.159Z,100.00
2022-10-19T08:26:18.567Z,100.00
2022-10-19T08:28:45.029Z,100.00
2022-10-19T08:31:18.628Z,99.28
2022-10-19T08:33:45.850Z,98.39
2022-10-19T08:36:14.327Z,97.22
2022-10-19T08:38:43.521Z,97.26
2022-10-19T08:41:44.108Z,97.27
2022-10-19T08:44:22.444Z,96.34
2022-10-19T08:47:02.591Z,95.43
2022-10-19T08:49:31.655Z,95.22
2022-10-19T08:52:04.031Z,94.96
2022-10-19T08:54:40.499Z,94.78
2022-10-19T08:57:15.209Z,94.67
2022-10-19T09:00:16.906Z,93.88
2022-10-19T09:03:11.934Z,93.56
2022-10-19T09:06:06.058Z,93.11
2022-10-19T09:08:35.366Z,93.92
2022-10-19T09:11:01.902Z,93.68
2022-10-19T09:14:04.096Z,93.39
2022-10-19T09:16:31.618Z,90.95
2022-10-19T09:18:58.313Z,91.23
2022-10-19T09:21:37.986Z,90.11
2022-10-19T09:24:42.461Z,89.69
2022-10-19T09:27:20.834Z,89.41
2022-10-19T09:30:04.123Z,88.69
2022-10-19T09:32:39.462Z,89.21
2022-10-19T09:35:18.214Z,88.87
2022-10-19T09:37:48.433Z,88.15
2022-10-19T09:40:22.273Z,88.26
2022-10-19T09:42:56.890Z,87.70
2022-10-19T09:45:46.038Z,85.70
2022-10-19T09:48:23.998Z,85.53
2022-10-19T09:50:59.850Z,84.61
2022-10-19T09:53:28.041Z,84.34
2022-10-19T09:55:58.951Z,84.45
2022-10-19T09:58:30.570Z,84.76
2022-10-19T10:01:01.226Z,83.54
2022-10-19T10:03:43.443Z,82.72
2022-10-19T10:06:14.647Z,84.13
2022-10-19T10:08:50.754Z,83.57
2022-10-19T10:11:32.947Z,83.07
2022-10-19T10:14:09.137Z,82.76
2022-10-19T10:16:36.537Z,82.02
2022-10-19T10:19:07.098Z,82.43
2022-10-19T10:21:46.110Z,82.41
2022-10-19T10:24:21.306Z,82.13
2022-10-19T10:26:50.716Z,81.50
2022-10-19T10:29:20.232Z,81.83
2022-10-19T10:31:52.368Z,82.46
2022-10-19T10:34:37.937Z,82.24
2022-10-19T10:37:26.781Z,81.89
2022-10-19T10:39:57.728Z,82.43
2022-10-19T10:42:32.584Z,82.29
2022-10-19T10:44:59.781Z,82.11
2022-10-19T10:47:28.392Z,82.51
2022-10-19T10:49:58.746Z,82.58
2022-10-19T10:52:27.852Z,81.60
2022-10-19T10:55:04.496Z,81.52
2022-10-19T10:57:37.472Z,80.73
2022-10-19T11:00:08.023Z,81.11
2022-10-19T11:02:46.588Z,80.90
2022-10-19T11:05:19.534Z,80.08
2022-10-19T11:07:49.806Z,80.07
2022-10-19T11:10:28.119Z,79.55
2022-10-19T11:13:03.559Z,79.37
2022-10-19T11:15:54.969Z,80.42
2022-10-19T11:18:35.907Z,79.62
2022-10-19T11:21:35.243Z,79.79
2022-10-19T11:24:25.591Z,80.49
2022-10-19T11:27:27.451Z,81.20
2022-10-19T11:29:59.530Z,81.93
2022-10-19T11:32:50.812Z,80.84
2022-10-19T11:35:23.189Z,79.24
2022-10-19T11:38:21.140Z,79.04
2022-10-19T11:41:16.955Z,78.89
2022-10-19T11:43:58.717Z,78.95
2022-10-19T11:46:38.502Z,79.44
2022-10-19T11:49:20.803Z,78.87
2022-10-19T11:51:57.442Z,79.87
2022-10-19T11:54:35.683Z,79.58
2022-10-19T11:57:25.585Z,78.91
2022-10-19T12:00:14.257Z,78.70
2022-10-19T12:03:04.085Z,78.28
2022-10-19T12:06:04.472Z,78.38
2022-10-19T12:09:07.298Z,78.70
2022-10-19T12:11:53.050Z,78.41
2022-10-19T12:14:26.790Z,79.13
2022-10-19T12:16:58.521Z,78.87
2022-10-19T12:19:29.288Z,79.47
2022-10-19T12:22:02.240Z,79.00
2022-10-19T12:24:30.459Z,79.19
2022-10-19T12:26:58.690Z,79.12
2022-10-19T12:29:29.471Z,78.55
2022-10-19T12:31:57.637Z,79.65
2022-10-19T12:34:47.003Z,79.02
2022-10-19T12:37:19.229Z,79.03
2022-10-19T12:39:53.361Z,79.10
2022-10-19T12:42:36.859Z,79.55
2022-10-19T12:45:25.261Z,79.99
2022-10-19T12:48:25.532Z,79.93
2022-10-19T12:50:56.675Z,79.63
2022-10-19T12:53:30.520Z,79.62
2022-10-19T12:56:21.708Z,79.99
2022-10-19T12:59:01.469Z,79.78
2022-10-19T13:01:34.061Z,80.16
2022-10-19T13:04:15.708Z,80.80
2022-10-19T13:07:01.347Z,80.37
2022-10-19T13:09:27.686Z,81.22
2022-10-19T13:12:19.728Z,81.03
2022-10-19T13:14:51.309Z,80.96
2022-10-19T13:17:46.457Z,81.28
2022-10-19T13:20:16.180Z,81.22
2022-10-19T13:22:50.156Z,81.59
2022-10-19T13:25:16.838Z,80.69
2022-10-19T13:27:44.860Z,80.62
2022-10-19T13:30:39.215Z,80.56
2022-10-19T13:33:33.324Z,81.08
2022-10-19T13:35:59.742Z,80.76
2022-10-19T13:38:30.222Z,80.42
2022-10-19T13:41:01.701Z,81.63
2022-10-19T13:43:34.332Z,81.66
2022-10-19T13:46:14.520Z,81.19
2022-10-19T13:48:50.042Z,82.51
2022-10-19T13:51:28.507Z,82.71
2022-10-19T13:54:08.568Z,82.46
2022-10-19T13:56:53.710Z,82.58
2022-10-19T13:59:38.104Z,82.36
2022-10-19T14:02:26.421Z,82.42
2022-10-19T14:05:24.823Z,82.43
2022-10-19T14:08:08.450Z,82.67
2022-10-19T14:10:56.223Z,82.75
2022-10-19T14:13:22.626Z,82.36
2022-10-19T14:15:55.020Z,81.78
2022-10-19T14:18:32.875Z,82.30
2022-10-19T14:21:05.792Z,82.07
2022-10-19T14:23:41.312Z,82.17
2022-10-19T14:26:14.665Z,81.82
2022-10-19T14:28:42.997Z,82.07
2022-10-19T14:31:18.445Z,81.74
2022-10-19T14:33:51.418Z,82.00
2022-10-19T14:36:20.729Z,81.82
2022-10-19T14:38:48.801Z,82.64
2022-10-19T14:41:28.904Z,82.46
2022-10-19T14:44:00.378Z,82.47
2022-10-19T14:46:32.723Z,82.13
2022-10-19T14:49:05.942Z,82.66
2022-10-19T14:51:45.331Z,81.17
2022-10-19T14:54:23.381Z,81.81
2022-10-19T14:56:57.559Z,82.20
2022-10-19T14:59:47.172Z,82.00
2022-10-19T15:02:31.320Z,82.11
2022-10-19T15:05:00.427Z,81.95
2022-10-19T15:07:35.458Z,81.64
2022-10-19T15:10:06.320Z,81.87
2022-10-19T15:12:40.126Z,82.61
2022-10-19T15:15:15.016Z,82.73
2022-10-19T15:17:55.418Z,82.21
2022-10-19T15:20:24.975Z,82.45
2022-10-19T15:22:51.771Z,82.85
2022-10-19T15:25:35.227Z,83.00
2022-10-19T15:28:41.654Z,83.83
2022-10-19T15:31:14.386Z,82.49
2022-10-19T15:33:45.282Z,82.20
2022-10-19T15:36:19.605Z,83.34
2022-10-19T15:38:48.422Z,83.34
2022-10-19T15:41:28.673Z,83.53
2022-10-19T15:44:00.957Z,83.64
2022-10-19T15:46:33.003Z,83.09
2022-10-19T15:49:20.961Z,83.64
2022-10-19T15:51:48.282Z,84.06
2022-10-19T15:54:17.259Z,83.95
2022-10-19T15:56:51.816Z,84.14
2022-10-19T15:59:21.568Z,83.30
2022-10-19T16:01:53.670Z,84.34
2022-10-19T16:04:22.511Z,83.55
2022-10-19T16:06:48.899Z,83.52
2022-10-19T16:09:20.724Z,83.54
2022-10-19T16:11:47.972Z,83.74
2022-10-19T16:14:14.515Z,83.78
2022-10-19T16:16:42.013Z,84.23
2022-10-19T16:19:10.388Z,85.24
2022-10-19T16:21:37.509Z,84.86
2022-10-19T16:24:04.351Z,84.91
2022-10-19T16:26:32.405Z,85.49
2022-10-19T16:29:01.182Z,84.59
2022-10-19T16:31:29.962Z,85.08
2022-10-19T16:33:56.511Z,85.08
2022-10-19T16:36:23.175Z,84.98
2022-10-19T16:38:49.720Z,85.24
2022-10-19T16:41:16.902Z,85.77
2022-10-19T16:43:43.877Z,85.62
2022-10-19T16:46:11.095Z,85.99
2022-10-19T16:48:38.284Z,85.94
2022-10-19T16:51:07.968Z,85.83
2022-10-19T16:53:35.197Z,85.64
2022-10-19T16:56:06.962Z,85.27
2022-10-19T16:58:33.543Z,85.21
2022-10-19T17:01:01.482Z,85.63
2022-10-19T17:03:30.879Z,85.90
2022-10-19T17:05:57.289Z,86.19
2022-10-19T17:11:35.347Z,86.46
2022-10-19T17:14:05.146Z,86.38
2022-10-19T17:16:39.007Z,87.10
2022-10-19T17:19:07.066Z,86.68
2022-10-19T17:21:38.351Z,87.05
2022-10-19T17:24:08.200Z,86.63
2022-10-19T17:26:38.236Z,86.49
2022-10-19T17:29:06.668Z,87.01
2022-10-19T17:31:33.349Z,86.63
2022-10-19T17:34:00.731Z,86.89
2022-10-19T17:36:31.762Z,86.16
2022-10-19T17:39:01.263Z,87.05
2022-10-19T17:41:29.027Z,87.07
2022-10-19T17:43:55.654Z,86.71
2022-10-19T17:46:25.523Z,86.46
2022-10-19T17:48:52.014Z,87.41
2022-10-19T17:51:21.291Z,86.18
2022-10-19T17:53:49.435Z,86.42
2022-10-19T17:56:18.765Z,87.01
2022-10-19T17:58:45.469Z,87.70
2022-10-19T18:01:12.499Z,87.59
2022-10-19T18:03:39.586Z,86.42
2022-10-19T18:06:09.852Z,87.31
2022-10-19T18:08:39.747Z,87.67
2022-10-19T18:11:09.071Z,88.11
2022-10-19T18:16:13.486Z,87.56
2022-10-19T18:18:42.686Z,87.76
2022-10-19T18:21:13.579Z,87.36
2022-10-19T18:23:40.714Z,88.01
